»·PEaware :: SWA798 KMCI-KLAS

SWA798 :: KMCI-KLAS

FLIGHT INFORMATION

Flight Status: Arrived
Operator:
Southwest Airlines
More flights by this operator :: More flights under this callsign
Pilot: Ben F. (2808)
Aircraft: BOEING 737-800
(B738)
More flights by this aircraft type
Origin: KMCI Kansas City Intl
United States
Destination: KLAS McCarran Intl
United States
More flights between these airports :: More routes between these airports
Route: +WLDCT3 SLN GCK J110 RSK J64 PGS TYSSN3
File this flight plan on PilotEdge
Remarks: Using Radar Contact untill in range ZLA Squawking 3237 / V /
Altitude:
(Current/Filed)
38,000ft
Speed:
(Current/Filed)
460kts
Departed: 11-Apr-14 07:50 AM
Arrived: 11-Apr-14 10:30 AM
Distance/Time
Traveled:
987nm/2:40
Distance/Time
To Go:
Arrived

Flight Plot

Page will automatically refresh every two minutes.


Map Options




Map Legend


Flown Route
Filed Route
Departure Airport
Arrival Airport
Navaid (VOR, NDB)
Fix

Horizontal Profiles

Position Reports

Time Latitude Longitude Heading Altitude Ground
Speed
11-Apr-14 07:31 39.294932 -94.721235 100 1033ft 0kts
11-Apr-14 07:32 39.294932 -94.721235 100 1033ft 0kts
11-Apr-14 07:33 39.294932 -94.721235 100 1033ft 0kts
11-Apr-14 07:34 39.294932 -94.721235 100 1033ft 0kts
11-Apr-14 07:35 39.294932 -94.721235 100 1033ft 0kts
11-Apr-14 07:36 39.294932 -94.721235 100 1033ft 0kts
11-Apr-14 07:37 39.294932 -94.721235 100 1033ft 0kts
11-Apr-14 07:38 39.294932 -94.721235 100 1033ft 0kts
11-Apr-14 07:39 39.294994 -94.721638 100 1033ft 0kts
11-Apr-14 07:40 39.294793 -94.721993 2 1033ft 0kts
11-Apr-14 07:41 39.294793 -94.721993 2 1033ft 0kts
11-Apr-14 07:42 39.297013 -94.724781 310 1033ft 22kts
11-Apr-14 07:43 39.302341 -94.723917 13 1033ft 20kts
11-Apr-14 07:44 39.307911 -94.722270 13 1033ft 20kts
11-Apr-14 07:45 39.313556 -94.720606 12 1033ft 20kts
11-Apr-14 07:46 39.318580 -94.719130 12 1033ft 17kts
11-Apr-14 07:47 39.321137 -94.721025 234 1033ft 8kts
11-Apr-14 07:48 39.320378 -94.721377 191 1033ft 4kts
11-Apr-14 07:49 39.291856 -94.730831 196 1658ft 175kts
11-Apr-14 07:50 39.271659 -94.788509 255 4209ft 209kts
11-Apr-14 07:51 39.261140 -94.876117 263 6212ft 273kts
11-Apr-14 07:52 39.251988 -94.974684 264 9781ft 275kts
11-Apr-14 07:53 39.242641 -95.076372 265 12131ft 313kts
11-Apr-14 07:54 39.231124 -95.196708 264 14269ft 348kts
11-Apr-14 07:55 39.218942 -95.322073 265 16936ft 358kts
11-Apr-14 07:56 39.205098 -95.450905 264 19301ft 369kts
11-Apr-14 07:57 39.189756 -95.583500 264 21429ft 379kts
11-Apr-14 07:58 39.173830 -95.719864 263 23287ft 391kts
11-Apr-14 07:59 39.157100 -95.859564 263 25033ft 399kts
11-Apr-14 08:00 39.139671 -96.002028 263 26559ft 407kts
11-Apr-14 08:01 39.121089 -96.147939 263 27864ft 416kts
11-Apr-14 08:02 39.101942 -96.296400 263 29022ft 424kts
11-Apr-14 08:03 39.082826 -96.445685 264 30538ft 420kts
11-Apr-14 08:04 39.063900 -96.593423 264 31900ft 417kts
11-Apr-14 08:05 39.044660 -96.740682 264 33179ft 415kts
11-Apr-14 08:06 39.025336 -96.886712 264 34391ft 412kts
11-Apr-14 08:07 39.006009 -97.031238 264 35511ft 409kts
11-Apr-14 08:08 38.986495 -97.175707 264 36133ft 411kts
11-Apr-14 08:09 38.967125 -97.319834 264 36141ft 407kts
11-Apr-14 08:10 38.947286 -97.463140 264 36145ft 408kts
11-Apr-14 08:11 38.926517 -97.607199 260 36148ft 412kts
11-Apr-14 08:12 38.886219 -97.747341 254 36469ft 419kts
11-Apr-14 08:13 38.843224 -97.885755 253 37487ft 415kts
11-Apr-14 08:14 38.800365 -98.022908 253 38145ft 414kts
11-Apr-14 08:15 38.758232 -98.159220 253 38142ft 409kts
11-Apr-14 08:16 38.715769 -98.295227 253 38140ft 410kts
11-Apr-14 08:17 38.673061 -98.431021 253 38139ft 409kts
11-Apr-14 08:18 38.637419 -98.543755 253 38139ft 409kts
11-Apr-14 08:19 38.594474 -98.678935 253 38139ft 409kts
11-Apr-14 08:20 38.551611 -98.813214 253 38140ft 409kts
11-Apr-14 08:21 38.508549 -98.947464 253 38141ft 407kts
11-Apr-14 08:22 38.465359 -99.081471 253 38141ft 407kts
11-Apr-14 08:23 38.422026 -99.215287 253 38142ft 407kts
11-Apr-14 08:24 38.378516 -99.349022 253 38144ft 407kts
11-Apr-14 08:25 38.334852 -99.482594 253 38146ft 408kts
11-Apr-14 08:26 38.290885 -99.616483 253 38146ft 409kts
11-Apr-14 08:27 38.246754 -99.750242 253 38147ft 409kts
11-Apr-14 08:28 38.202533 -99.883655 253 38147ft 408kts
11-Apr-14 08:29 38.158238 -100.016675 253 38148ft 407kts
11-Apr-14 08:30 38.113669 -100.149914 253 38149ft 407kts
11-Apr-14 08:31 38.069104 -100.282536 253 38149ft 407kts
11-Apr-14 08:32 38.024645 -100.414986 253 38149ft 406kts
11-Apr-14 08:33 37.979943 -100.546721 252 38149ft 406kts
11-Apr-14 08:34 37.934971 -100.678432 253 38148ft 405kts
11-Apr-14 08:35 37.911881 -100.815346 267 38149ft 395kts
11-Apr-14 08:36 37.898388 -100.953680 267 38150ft 395kts
11-Apr-14 08:37 37.885072 -101.092093 267 38149ft 395kts
11-Apr-14 08:38 37.872096 -101.230978 267 38146ft 396kts
11-Apr-14 08:39 37.859170 -101.369620 267 38143ft 396kts
11-Apr-14 08:40 37.845956 -101.508244 267 38140ft 396kts
11-Apr-14 08:41 37.832516 -101.646970 267 38139ft 396kts
11-Apr-14 08:42 37.818922 -101.785399 267 38136ft 395kts
11-Apr-14 08:43 37.805117 -101.924170 266 38128ft 395kts
11-Apr-14 08:44 37.791186 -102.062496 266 38125ft 396kts
11-Apr-14 08:45 37.777068 -102.201009 266 38124ft 396kts
11-Apr-14 08:46 37.762799 -102.339382 266 38121ft 395kts
11-Apr-14 08:47 37.748390 -102.477462 266 38120ft 395kts
11-Apr-14 08:48 37.733777 -102.615906 266 38120ft 395kts
11-Apr-14 08:49 37.719034 -102.753995 266 38124ft 396kts
11-Apr-14 08:50 37.704059 -102.892710 265 38126ft 395kts
11-Apr-14 08:51 37.689005 -103.030569 265 38127ft 395kts
11-Apr-14 08:52 37.673790 -103.168389 265 38130ft 396kts
11-Apr-14 08:53 37.658312 -103.307067 265 38132ft 397kts
11-Apr-14 08:54 37.642698 -103.445458 265 38133ft 397kts
11-Apr-14 08:55 37.626917 -103.583837 265 38140ft 398kts
11-Apr-14 08:56 37.610967 -103.722221 265 38143ft 397kts
11-Apr-14 08:57 37.594840 -103.860683 265 38148ft 396kts
11-Apr-14 08:58 37.578641 -103.998333 265 38152ft 395kts
11-Apr-14 08:59 37.562353 -104.135341 265 38160ft 393kts
11-Apr-14 09:00 37.545909 -104.272247 265 38162ft 392kts
11-Apr-14 09:01 37.532142 -104.385848 265 38174ft 393kts
11-Apr-14 09:02 37.515408 -104.522653 264 38201ft 394kts
11-Apr-14 09:03 37.498471 -104.659776 264 38230ft 396kts
11-Apr-14 09:04 37.481325 -104.797243 264 38271ft 397kts
11-Apr-14 09:05 37.463884 -104.935710 264 38316ft 400kts
11-Apr-14 09:06 37.446241 -105.074458 264 38351ft 401kts
11-Apr-14 09:07 37.428404 -105.213382 264 38366ft 401kts
11-Apr-14 09:08 37.410364 -105.352595 264 38360ft 400kts
11-Apr-14 09:09 37.392574 -105.490459 264 38343ft 396kts
11-Apr-14 09:10 37.374520 -105.626876 263 38322ft 393kts
11-Apr-14 09:11 37.356251 -105.762824 263 38305ft 392kts
11-Apr-14 09:12 37.329556 -105.895988 255 38300ft 394kts
11-Apr-14 09:15 37.228034 -106.290913 255 38351ft 396kts
11-Apr-14 09:16 37.194260 -106.423121 255 38376ft 396kts
11-Apr-14 09:17 37.160262 -106.555008 255 38399ft 396kts
11-Apr-14 09:18 37.126095 -106.686698 254 38418ft 397kts
11-Apr-14 09:19 37.091733 -106.818387 254 38388ft 397kts
11-Apr-14 09:20 37.057213 -106.949990 254 38349ft 397kts
11-Apr-14 09:21 37.022416 -107.081971 254 38324ft 398kts
11-Apr-14 09:22 36.987502 -107.213724 254 38285ft 399kts
11-Apr-14 09:22 36.987502 -107.213724 254 38285ft 399kts
11-Apr-14 09:23 36.952335 -107.345760 254 38269ft 400kts
11-Apr-14 09:24 36.916948 -107.477970 254 38259ft 400kts
11-Apr-14 09:25 36.881385 -107.610158 254 38251ft 401kts
11-Apr-14 09:26 36.845599 -107.743010 254 38245ft 401kts
11-Apr-14 09:27 36.809769 -107.875306 253 38229ft 401kts
11-Apr-14 09:28 36.773521 -108.007483 253 38218ft 402kts
11-Apr-14 09:29 36.739719 -108.140373 258 38212ft 400kts
11-Apr-14 09:30 36.715166 -108.275921 259 38210ft 400kts
11-Apr-14 09:31 36.690055 -108.411763 258 38211ft 400kts
11-Apr-14 09:32 36.664845 -108.547078 258 38215ft 400kts
11-Apr-14 09:32 36.664845 -108.547078 258 38215ft 400kts
11-Apr-14 09:33 36.639767 -108.682392 258 38219ft 400kts
11-Apr-14 09:34 36.614318 -108.817644 258 38225ft 400kts
11-Apr-14 09:34 36.614318 -108.817644 258 38225ft 400kts
11-Apr-14 09:35 36.588611 -108.952954 258 38235ft 401kts
11-Apr-14 09:36 36.562721 -109.088237 258 38241ft 401kts
11-Apr-14 09:37 36.536627 -109.223586 257 38242ft 401kts
11-Apr-14 09:37 36.536627 -109.223586 257 38242ft 401kts
11-Apr-14 09:38 36.510378 -109.358864 257 38243ft 401kts
11-Apr-14 09:38 36.510378 -109.358864 257 38243ft 401kts
11-Apr-14 09:39 36.484003 -109.493935 257 38238ft 401kts
11-Apr-14 09:39 36.484003 -109.493935 257 38238ft 401kts
11-Apr-14 09:40 36.457444 -109.629059 257 38236ft 402kts
11-Apr-14 09:40 36.457444 -109.629059 257 38236ft 402kts
11-Apr-14 09:41 36.430674 -109.764411 256 38233ft 402kts
11-Apr-14 09:42 36.403776 -109.899543 256 38228ft 402kts
11-Apr-14 09:43 36.381417 -110.012225 256 38224ft 402kts
11-Apr-14 09:44 36.354186 -110.147605 256 38218ft 403kts
11-Apr-14 09:45 36.326656 -110.282725 256 38212ft 403kts
11-Apr-14 09:46 36.298962 -110.418046 256 38206ft 404kts
11-Apr-14 09:47 36.271391 -110.553348 256 38200ft 404kts
11-Apr-14 09:48 36.243316 -110.689222 255 38194ft 405kts
11-Apr-14 09:49 36.214984 -110.824887 255 38193ft 407kts
11-Apr-14 09:50 36.186717 -110.960948 255 38195ft 407kts
11-Apr-14 09:51 36.158092 -111.096702 255 38198ft 407kts
11-Apr-14 09:52 36.129214 -111.232502 255 38204ft 407kts
11-Apr-14 09:53 36.100643 -111.368490 255 38211ft 407kts
11-Apr-14 09:54 36.071893 -111.504897 255 38223ft 408kts
11-Apr-14 09:55 36.043016 -111.640936 255 38235ft 409kts
11-Apr-14 09:56 36.014423 -111.777063 255 38251ft 408kts
11-Apr-14 09:57 35.985522 -111.913572 254 38256ft 408kts
11-Apr-14 09:58 35.956466 -112.049453 254 38259ft 408kts
11-Apr-14 09:59 35.927235 -112.185159 254 38259ft 408kts
11-Apr-14 10:00 35.897724 -112.321299 254 38261ft 408kts
11-Apr-14 10:01 35.868164 -112.456842 254 38262ft 408kts
11-Apr-14 10:02 35.838471 -112.592196 254 38260ft 408kts
11-Apr-14 10:03 35.808688 -112.727194 254 36583ft 407kts
11-Apr-14 10:04 35.778443 -112.863481 253 33850ft 414kts
11-Apr-14 10:05 35.747801 -113.000731 253 31461ft 410kts
11-Apr-14 10:06 35.717774 -113.134478 253 29445ft 399kts
11-Apr-14 10:07 35.688635 -113.264713 253 27497ft 389kts
11-Apr-14 10:08 35.659717 -113.391713 252 25573ft 381kts
11-Apr-14 10:09 35.631740 -113.517252 257 23617ft 379kts
11-Apr-14 10:10 35.639427 -113.647042 277 21655ft 381kts
11-Apr-14 10:11 35.657757 -113.774843 277 19762ft 376kts
11-Apr-14 10:12 35.675638 -113.901968 277 17880ft 376kts
11-Apr-14 10:13 35.693398 -114.027646 277 16052ft 360kts
11-Apr-14 10:14 35.710049 -114.146731 277 14346ft 348kts
11-Apr-14 10:15 35.726062 -114.263581 277 12832ft 331kts
11-Apr-14 10:16 35.745848 -114.367056 303 12128ft 304kts
11-Apr-14 10:17 35.817028 -114.418615 337 12047ft 285kts
11-Apr-14 10:18 35.887760 -114.450978 337 11997ft 261kts
11-Apr-14 10:19 35.956941 -114.483751 337 10879ft 268kts
11-Apr-14 10:20 36.025018 -114.518770 319 10099ft 254kts
11-Apr-14 10:21 36.051709 -114.598441 279 9283ft 258kts
11-Apr-14 10:22 36.066047 -114.685309 280 8426ft 254kts
11-Apr-14 10:23 36.073998 -114.769453 268 7565ft 239kts
11-Apr-14 10:24 36.073907 -114.846046 268 6601ft 211kts
11-Apr-14 10:25 36.073853 -114.906557 268 5643ft 214kts
11-Apr-14 10:26 36.073787 -114.986117 267 4363ft 184kts
11-Apr-14 10:27 36.073740 -115.037894 269 3523ft 179kts
11-Apr-14 10:28 36.073631 -115.095727 268 2595ft 159kts
11-Apr-14 10:29 36.073665 -115.144793 268 2189ft 75kts
11-Apr-14 10:30 36.076092 -115.151749 335 2189ft 16kts
11-Apr-14 10:31 36.077841 -115.147935 94 2189ft 15kts
11-Apr-14 10:32 36.079573 -115.146219 353 2189ft 3kts
11-Apr-14 10:33 36.079632 -115.146227 353 2189ft 0kts
11-Apr-14 10:34 36.079632 -115.146227 353 2189ft 0kts
11-Apr-14 10:35 36.079632 -115.146227 353 2189ft 0kts
11-Apr-14 10:36 36.079632 -115.146227 353 2189ft 0kts
11-Apr-14 10:37 36.079632 -115.146227 353 2189ft 0kts
11-Apr-14 10:38 36.079632 -115.146227 353 2189ft 0kts
11-Apr-14 10:39 36.079632 -115.146227 353 2189ft 0kts
11-Apr-14 10:40 36.079632 -115.146227 353 2189ft 0kts
11-Apr-14 10:41 36.079632 -115.146227 353 2189ft 0kts
11-Apr-14 10:42 36.079632 -115.146227 353 2189ft 0kts
11-Apr-14 10:43 36.079632 -115.146227 353 2189ft 0kts
11-Apr-14 10:44 36.079632 -115.146227 353 2189ft 0kts

Navigation Log

Ident Type
Flight plan parsing failed, navigation log unavailable